Map

Track Data

SID SEASON NUMBER BASIN SUBBASIN NAME ISO_TIME NATURE LAT LON WMO_WIND WMO_PRES WMO_AGENCY TRACK_TYPE DIST2LAND LANDFALL IFLAG USA_AGENCY USA_ATCF_ID USA_LAT USA_LON USA_RECORD USA_STATUS USA_WIND USA_PRES USA_SSHS USA_R34_NE USA_R34_SE USA_R34_SW USA_R34_NW USA_R50_NE USA_R50_SE USA_R50_SW USA_R50_NW USA_R64_NE USA_R64_SE USA_R64_SW USA_R64_NW USA_POCI USA_ROCI USA_RMW USA_EYE TOKYO_LAT TOKYO_LON TOKYO_GRADE TOKYO_WIND TOKYO_PRES TOKYO_R50_DIR TOKYO_R50_LONG TOKYO_R50_SHORT TOKYO_R30_DIR TOKYO_R30_LONG TOKYO_R30_SHORT TOKYO_LAND CMA_LAT CMA_LON CMA_CAT CMA_WIND CMA_PRES HKO_LAT HKO_LON HKO_CAT HKO_WIND HKO_PRES NEWDELHI_LAT NEWDELHI_LON NEWDELHI_GRADE NEWDELHI_WIND NEWDELHI_PRES NEWDELHI_CI NEWDELHI_DP NEWDELHI_POCI REUNION_LAT REUNION_LON REUNION_TYPE REUNION_WIND REUNION_PRES REUNION_TNUM REUNION_CI REUNION_RMW REUNION_R34_NE REUNION_R34_SE REUNION_R34_SW REUNION_R34_NW REUNION_R50_NE REUNION_R50_SE REUNION_R50_SW REUNION_R50_NW REUNION_R64_NE REUNION_R64_SE REUNION_R64_SW REUNION_R64_NW BOM_LAT BOM_LON BOM_TYPE BOM_WIND BOM_PRES BOM_TNUM BOM_CI BOM_RMW BOM_R34_NE BOM_R34_SE BOM_R34_SW BOM_R34_NW BOM_R50_NE BOM_R50_SE BOM_R50_SW BOM_R50_NW BOM_R64_NE BOM_R64_SE BOM_R64_SW BOM_R64_NW BOM_ROCI BOM_POCI BOM_EYE BOM_POS_METHOD BOM_PRES_METHOD NADI_LAT NADI_LON NADI_CAT NADI_WIND NADI_PRES WELLINGTON_LAT WELLINGTON_LON WELLINGTON_WIND WELLINGTON_PRES DS824_LAT DS824_LON DS824_STAGE DS824_WIND DS824_PRES TD9636_LAT TD9636_LON TD9636_STAGE TD9636_WIND TD9636_PRES TD9635_LAT TD9635_LON TD9635_WIND TD9635_PRES TD9635_ROCI NEUMANN_LAT NEUMANN_LON NEUMANN_CLASS NEUMANN_WIND NEUMANN_PRES MLC_LAT MLC_LON MLC_CLASS MLC_WIND MLC_PRES USA_GUST BOM_GUST BOM_GUST_PER REUNION_GUST REUNION_GUST_PER USA_SEAHGT USA_SEARAD_NE USA_SEARAD_SE USA_SEARAD_SW USA_SEARAD_NW STORM_SPEED STORM_DIR
1910070S13047 1910 13 SI MM NOT_NAMED 1910-03-11 00:00:00 TS -12.5000 47.1000 main 157 147 _________O____ -1 -12.5000 47.1000 TC 7 217
1910070S13047 1910 13 SI MM NOT_NAMED 1910-03-11 03:00:00 TS -12.7600 46.9001 main 147 147 _________P____ -1 -12.7600 46.9001 TC 6 218
1910070S13047 1910 13 SI MM NOT_NAMED 1910-03-11 06:00:00 TS -13.0000 46.7000 main 151 151 _________O____ -1 -13.0000 46.7000 TC 6 221
1910070S13047 1910 13 SI MM NOT_NAMED 1910-03-11 09:00:00 TS -13.2075 46.5000 main 161 157 _________P____ -1 -13.2075 46.5000 TC 6 224
1910070S13047 1910 13 SI MM NOT_NAMED 1910-03-11 12:00:00 TS -13.4000 46.3000 main 176 176 _________O____ -1 -13.4000 46.3000 TC 6 225
1910070S13047 1910 13 SI MM NOT_NAMED 1910-03-11 15:00:00 TS -13.6000 46.1000 main 194 193 _________P____ -1 -13.6000 46.1000 TC 6 224
1910070S13047 1910 13 SI MM NOT_NAMED 1910-03-11 18:00:00 TS -13.8000 45.9000 main 193 178 _________O____ -1 -13.8000 45.9000 TC 5 224
1910070S13047 1910 13 SI MM NOT_NAMED 1910-03-11 21:00:00 TS -13.9849 45.7223 main 184 174 _________P____ -1 -13.9849 45.7223 TC 6 224
1910070S13047 1910 13 SI MM NOT_NAMED 1910-03-12 00:00:00 TS -14.2000 45.5000 main 179 162 _________O____ -1 -14.2000 45.5000 TC 7 226
1910070S13047 1910 13 SI MM NOT_NAMED 1910-03-12 03:00:00 TS -14.4925 45.1800 main 162 136 _________P____ -1 -14.4925 45.1800 TC 9 228
1910070S13047 1910 13 SI MM NOT_NAMED 1910-03-12 06:00:00 TS -14.8000 44.8000 main 138 129 _________O____ -1 -14.8000 44.8000 TC 9 234
1910070S13047 1910 13 SI MM NOT_NAMED 1910-03-12 09:00:00 TS -15.0350 44.3998 main 134 119 _________P____ -1 -15.0350 44.3998 TC 9 237
1910070S13047 1910 13 SI MM NOT_NAMED 1910-03-12 12:00:00 TS -15.3000 44.0000 main 119 100 _________O____ -1 -15.3000 44.0000 TC 10 229
1910070S13047 1910 13 SI MM NOT_NAMED 1910-03-12 15:00:00 TS -15.6774 43.6424 main 108 102 _________P____ -1 -15.6774 43.6424 TC 11 220
1910070S13047 1910 13 SI MM NOT_NAMED 1910-03-12 18:00:00 TS -16.1000 43.3000 main 119 119 _________O____ -1 -16.1000 43.3000 TC 11 219
1910070S13047 1910 13 SI MM NOT_NAMED 1910-03-12 21:00:00 TS -16.5075 42.9350 main 149 144 _________P____ -1 -16.5075 42.9350 TC 10 220
1910070S13047 1910 13 SI MM NOT_NAMED 1910-03-13 00:00:00 TS -16.9000 42.6000 main 153 153 _________O____ -1 -16.9000 42.6000 TC 10 218
1910070S13047 1910 13 SI MM NOT_NAMED 1910-03-13 03:00:00 TS -17.2500 42.3199 main 173 171 _________P____ -1 -17.2500 42.3199 TC 9 214
1910070S13047 1910 13 SI MM NOT_NAMED 1910-03-13 06:00:00 TS -17.6000 42.1000 main 191 191 _________O____ -1 -17.6000 42.1000 TC 8 207
1910070S13047 1910 13 SI MM NOT_NAMED 1910-03-13 09:00:00 TS -17.9850 41.9274 main 219 219 _________P____ -1 -17.9850 41.9274 TC 9 200
1910070S13047 1910 13 SI MM NOT_NAMED 1910-03-13 12:00:00 TS -18.4000 41.8000 main 232 232 _________O____ -1 -18.4000 41.8000 TC 9 195
1910070S13047 1910 13 SI MM NOT_NAMED 1910-03-13 15:00:00 TS -18.8425 41.6850 main 246 246 _________P____ -1 -18.8425 41.6850 TC 9 192
1910070S13047 1910 13 SI MM NOT_NAMED 1910-03-13 18:00:00 TS -19.3000 41.6000 main 271 271 _________O____ -1 -19.3000 41.6000 TC 9 189
1910070S13047 1910 13 SI MM NOT_NAMED 1910-03-13 21:00:00 TS -19.7350 41.5350 main 278 247 _________P____ -1 -19.7350 41.5350 TC 9 186
1910070S13047 1910 13 SI MM NOT_NAMED 1910-03-14 00:00:00 TS -20.2000 41.5000 main 247 221 _________O____ -1 -20.2000 41.5000 TC 10 183
1910070S13047 1910 13 SI MM NOT_NAMED 1910-03-14 03:00:00 TS -20.7425 41.4702 main 221 201 _________P____ -1 -20.7425 41.4702 TC 11 180
1910070S13047 1910 13 SI MM NOT_NAMED 1910-03-14 06:00:00 TS -21.3000 41.5000 main 201 170 _________O____ -1 -21.3000 41.5000 TC 11 173
1910070S13047 1910 13 SI MM NOT_NAMED 1910-03-14 09:00:00 TS -21.8150 41.6125 main 170 143 _________P____ -1 -21.8150 41.6125 TC 10 164
1910070S13047 1910 13 SI MM NOT_NAMED 1910-03-14 12:00:00 TS -22.3000 41.8000 main 143 127 _________O____ -1 -22.3000 41.8000 TC 10 158
1910070S13047 1910 13 SI MM NOT_NAMED 1910-03-14 15:00:00 TS -22.7649 42.0201 main 135 121 _________P____ -1 -22.7649 42.0201 TC 10 153
1910070S13047 1910 13 SI MM NOT_NAMED 1910-03-14 18:00:00 TS -23.2000 42.3000 main 121 102 _________O____ -1 -23.2000 42.3000 TC 10 147
1910070S13047 1910 13 SI MM NOT_NAMED 1910-03-14 21:00:00 TS -23.6300 42.6275 main 102 69 _________P____ -1 -23.6300 42.6275 TC 10 141
1910070S13047 1910 13 SI MM NOT_NAMED 1910-03-15 00:00:00 TS -24.0000 43.0000 main 69 37 _________O____ -1 -24.0000 43.0000 TC 10 133
1910070S13047 1910 13 SI MM NOT_NAMED 1910-03-15 03:00:00 TS -24.2724 43.3928 main 37 0 _________P____ -1 -24.2724 43.3928 TC 9 124
1910070S13047 1910 13 SI MM NOT_NAMED 1910-03-15 06:00:00 TS -24.5000 43.8000 main 0 0 _________O____ -1 -24.5000 43.8000 TC 9 124
1910070S13047 1910 13 SI MM NOT_NAMED 1910-03-15 09:00:00 TS -24.7573 44.1926 main 0 0 _________P____ -1 -24.7573 44.1926 TC 9 125
1910070S13047 1910 13 SI MM NOT_NAMED 1910-03-15 12:00:00 TS -25.0000 44.6000 main 0 0 _________O____ -1 -25.0000 44.6000 TC 9 121
1910070S13047 1910 13 SI MM NOT_NAMED 1910-03-15 15:00:00 TS -25.2149 45.0426 main 0 0 _________P____ -1 -25.2149 45.0426 TC 9 116
1910070S13047 1910 13 SI MM NOT_NAMED 1910-03-15 18:00:00 TS -25.4000 45.5000 main 0 0 _________O____ -1 -25.4000 45.5000 TC 9 113
1910070S13047 1910 13 SI MM NOT_NAMED 1910-03-15 21:00:00 TS -25.5577 45.9523 main 30 30 _________P____ -1 -25.5577 45.9523 TC 9 110
1910070S13047 1910 13 SI MM NOT_NAMED 1910-03-16 00:00:00 TS -25.7000 46.4000 main 59 _________O____ -1 -25.7000 46.4000 TC 9 109

About IBTrACS Database

This database is a web-friendly format of International Best Track Archive for Climate Stewardship (IBTrACS), a global best track data archive curated by NOAA dating back to 1842.

Updated: 2021-12-03